sensor_id;sensor_type;location;lat;lon;timestamp;pressure;altitude;pressure_sealevel;temperature
76007;BMP280;64699;0.000;0.000;2023-08-08T00:00:34;99626.81;;;21.41
76007;BMP280;64699;0.000;0.000;2023-08-08T00:03:00;99630.31;;;21.42
76007;BMP280;64699;0.000;0.000;2023-08-08T00:05:25;99629.00;;;21.43
76007;BMP280;64699;0.000;0.000;2023-08-08T00:07:50;99634.53;;;21.43
76007;BMP280;64699;0.000;0.000;2023-08-08T00:10:15;99624.78;;;21.42
76007;BMP280;64699;0.000;0.000;2023-08-08T00:12:40;99638.59;;;21.42
76007;BMP280;64699;0.000;0.000;2023-08-08T00:15:06;99635.84;;;21.42
76007;BMP280;64699;0.000;0.000;2023-08-08T00:17:31;99645.59;;;21.43
76007;BMP280;64699;0.000;0.000;2023-08-08T00:19:56;99644.13;;;21.42
76007;BMP280;64699;0.000;0.000;2023-08-08T00:22:22;99651.13;;;21.43
76007;BMP280;64699;0.000;0.000;2023-08-08T00:24:47;99651.13;;;21.43
76007;BMP280;64699;0.000;0.000;2023-08-08T00:27:12;99654.03;;;21.45
76007;BMP280;64699;0.000;0.000;2023-08-08T00:29:37;99655.31;;;21.44
76007;BMP280;64699;0.000;0.000;2023-08-08T00:32:02;99656.78;;;21.45
76007;BMP280;64699;0.000;0.000;2023-08-08T00:34:28;99662.31;;;21.45
76007;BMP280;64699;0.000;0.000;2023-08-08T00:36:53;99661.00;;;21.46
76007;BMP280;64699;0.000;0.000;2023-08-08T00:39:18;99665.59;;;21.51
76007;BMP280;64699;0.000;0.000;2023-08-08T00:41:43;99674.19;;;21.55
76007;BMP280;64699;0.000;0.000;2023-08-08T00:44:09;99682.31;;;21.53
76007;BMP280;64699;0.000;0.000;2023-08-08T00:46:34;99679.41;;;21.51
76007;BMP280;64699;0.000;0.000;2023-08-08T00:49:00;99682.16;;;21.51
76007;BMP280;64699;0.000;0.000;2023-08-08T00:51:25;99684.75;;;21.49
76007;BMP280;64699;0.000;0.000;2023-08-08T00:53:50;99687.53;;;21.49
76007;BMP280;64699;0.000;0.000;2023-08-08T00:56:16;99697.81;;;21.48
76007;BMP280;64699;0.000;0.000;2023-08-08T00:58:42;99694.50;;;21.50
76007;BMP280;64699;0.000;0.000;2023-08-08T01:01:10;99691.34;;;21.53
76007;BMP280;64699;0.000;0.000;2023-08-08T01:03:35;99692.94;;;21.56
76007;BMP280;64699;0.000;0.000;2023-08-08T01:06:05;99687.75;;;21.60
76007;BMP280;64699;0.000;0.000;2023-08-08T01:08:35;99699.13;;;21.64
76007;BMP280;64699;0.000;0.000;2023-08-08T01:11:02;99698.38;;;21.63
76007;BMP280;64699;0.000;0.000;2023-08-08T01:13:28;99701.00;;;21.61
76007;BMP280;64699;0.000;0.000;2023-08-08T01:15:55;99703.47;;;21.58
76007;BMP280;64699;0.000;0.000;2023-08-08T01:18:21;99704.75;;;21.57
76007;BMP280;64699;0.000;0.000;2023-08-08T01:20:46;99703.25;;;21.56
76007;BMP280;64699;0.000;0.000;2023-08-08T01:23:16;99722.47;;;21.54
76007;BMP280;64699;0.000;0.000;2023-08-08T01:25:42;99722.47;;;21.54
76007;BMP280;64699;0.000;0.000;2023-08-08T01:28:08;99734.81;;;21.53
76007;BMP280;64699;0.000;0.000;2023-08-08T01:30:34;99728.00;;;21.54
76007;BMP280;64699;0.000;0.000;2023-08-08T01:32:59;99737.75;;;21.55
76007;BMP280;64699;0.000;0.000;2023-08-08T01:35:26;99743.28;;;21.55
76007;BMP280;64699;0.000;0.000;2023-08-08T01:37:54;99739.06;;;21.54
76007;BMP280;64699;0.000;0.000;2023-08-08T01:40:22;99746.03;;;21.55
76007;BMP280;64699;0.000;0.000;2023-08-08T01:42:47;99741.97;;;21.56
76007;BMP280;64699;0.000;0.000;2023-08-08T01:45:13;99757.09;;;21.55
76007;BMP280;64699;0.000;0.000;2023-08-08T01:47:39;99754.16;;;21.53
76007;BMP280;64699;0.000;0.000;2023-08-08T01:50:05;99761.00;;;21.52
76007;BMP280;64699;0.000;0.000;2023-08-08T01:52:30;99756.94;;;21.53
76007;BMP280;64699;0.000;0.000;2023-08-08T01:54:56;99763.75;;;21.52
76007;BMP280;64699;0.000;0.000;2023-08-08T01:57:21;99761.75;;;21.52
76007;BMP280;64699;0.000;0.000;2023-08-08T01:59:47;99759.56;;;21.51
76007;BMP280;64699;0.000;0.000;2023-08-08T02:02:12;99758.81;;;21.50
76007;BMP280;64699;0.000;0.000;2023-08-08T02:04:38;99763.03;;;21.51
76007;BMP280;64699;0.000;0.000;2023-08-08T02:07:03;99761.56;;;21.50
76007;BMP280;64699;0.000;0.000;2023-08-08T02:09:28;99764.34;;;21.50
76007;BMP280;64699;0.000;0.000;2023-08-08T02:11:54;99768.56;;;21.51
76007;BMP280;64699;0.000;0.000;2023-08-08T02:14:19;99767.09;;;21.50
76007;BMP280;64699;0.000;0.000;2023-08-08T02:16:44;99781.66;;;21.51
76007;BMP280;64699;0.000;0.000;2023-08-08T02:19:09;99777.44;;;21.50
76007;BMP280;64699;0.000;0.000;2023-08-08T02:21:35;99789.19;;;21.50
76007;BMP280;64699;0.000;0.000;2023-08-08T02:24:00;99789.19;;;21.50
76007;BMP280;64699;0.000;0.000;2023-08-08T02:26:25;99789.19;;;21.50
76007;BMP280;64699;0.000;0.000;2023-08-08T02:28:50;99777.44;;;21.50
76007;BMP280;64699;0.000;0.000;2023-08-08T02:31:16;99789.94;;;21.51
76007;BMP280;64699;0.000;0.000;2023-08-08T02:33:47;99788.47;;;21.50
76007;BMP280;64699;0.000;0.000;2023-08-08T02:36:12;99797.50;;;21.50
76007;BMP280;64699;0.000;0.000;2023-08-08T02:38:37;99805.06;;;21.50
76007;BMP280;64699;0.000;0.000;2023-08-08T02:41:02;99805.06;;;21.50
76007;BMP280;64699;0.000;0.000;2023-08-08T02:43:27;99803.59;;;21.49
76007;BMP280;64699;0.000;0.000;2023-08-08T02:45:52;99807.81;;;21.50
76007;BMP280;64699;0.000;0.000;2023-08-08T02:48:18;99809.13;;;21.49
76007;BMP280;64699;0.000;0.000;2023-08-08T02:50:43;99813.34;;;21.50
76007;BMP280;64699;0.000;0.000;2023-08-08T02:53:08;99818.13;;;21.49
76007;BMP280;64699;0.000;0.000;2023-08-08T02:55:33;99814.66;;;21.49
76007;BMP280;64699;0.000;0.000;2023-08-08T02:58:00;99817.41;;;21.49
76007;BMP280;64699;0.000;0.000;2023-08-08T03:00:25;99824.97;;;21.48
76007;BMP280;64699;0.000;0.000;2023-08-08T03:02:51;99832.50;;;21.48
76007;BMP280;64699;0.000;0.000;2023-08-08T03:05:16;99834.56;;;21.47
76007;BMP280;64699;0.000;0.000;2023-08-08T03:07:41;99838.03;;;21.48
76007;BMP280;64699;0.000;0.000;2023-08-08T03:10:06;99840.78;;;21.48
76007;BMP280;64699;0.000;0.000;2023-08-08T03:12:32;99835.25;;;21.48
76007;BMP280;64699;0.000;0.000;2023-08-08T03:14:57;99833.81;;;21.47
76007;BMP280;64699;0.000;0.000;2023-08-08T03:17:22;99843.56;;;21.48
76007;BMP280;64699;0.000;0.000;2023-08-08T03:19:47;99850.41;;;21.47
76007;BMP280;64699;0.000;0.000;2023-08-08T03:22:13;99853.16;;;21.47
76007;BMP280;64699;0.000;0.000;2023-08-08T03:24:38;99856.69;;;21.47
76007;BMP280;64699;0.000;0.000;2023-08-08T03:27:03;99864.22;;;21.47
76007;BMP280;64699;0.000;0.000;2023-08-08T03:29:28;99864.22;;;21.47
76007;BMP280;64699;0.000;0.000;2023-08-08T03:31:54;99866.25;;;21.46
76007;BMP280;64699;0.000;0.000;2023-08-08T03:34:19;99876.03;;;21.47
76007;BMP280;64699;0.000;0.000;2023-08-08T03:36:44;99876.56;;;21.46
76007;BMP280;64699;0.000;0.000;2023-08-08T03:39:09;99878.78;;;21.47
76007;BMP280;64699;0.000;0.000;2023-08-08T03:41:35;99875.28;;;21.47
76007;BMP280;64699;0.000;0.000;2023-08-08T03:44:01;99882.84;;;21.46
76007;BMP280;64699;0.000;0.000;2023-08-08T03:46:27;99880.81;;;21.47
76007;BMP280;64699;0.000;0.000;2023-08-08T03:48:52;99882.09;;;21.46
76007;BMP280;64699;0.000;0.000;2023-08-08T03:51:18;99890.38;;;21.46
76007;BMP280;64699;0.000;0.000;2023-08-08T03:53:43;99900.16;;;21.47
76007;BMP280;64699;0.000;0.000;2023-08-08T03:56:08;99905.69;;;21.47
76007;BMP280;64699;0.000;0.000;2023-08-08T03:58:33;99906.44;;;21.47
76007;BMP280;64699;0.000;0.000;2023-08-08T04:00:58;99907.13;;;21.48
76007;BMP280;64699;0.000;0.000;2023-08-08T04:03:24;99907.88;;;21.48
76007;BMP280;64699;0.000;0.000;2023-08-08T04:05:49;99919.69;;;21.49
76007;BMP280;64699;0.000;0.000;2023-08-08T04:08:14;99914.88;;;21.49
76007;BMP280;64699;0.000;0.000;2023-08-08T04:10:40;99926.66;;;21.50
76007;BMP280;64699;0.000;0.000;2023-08-08T04:13:05;99929.44;;;21.50
76007;BMP280;64699;0.000;0.000;2023-08-08T04:15:30;99925.19;;;21.49
76007;BMP280;64699;0.000;0.000;2023-08-08T04:17:55;99929.22;;;21.48
76007;BMP280;64699;0.000;0.000;2023-08-08T04:20:21;99937.53;;;21.48
76007;BMP280;64699;0.000;0.000;2023-08-08T04:22:46;99935.50;;;21.48
76007;BMP280;64699;0.000;0.000;2023-08-08T04:25:11;99940.28;;;21.48
76007;BMP280;64699;0.000;0.000;2023-08-08T04:27:36;99945.81;;;21.48
76007;BMP280;64699;0.000;0.000;2023-08-08T04:30:02;99951.34;;;21.48
76007;BMP280;64699;0.000;0.000;2023-08-08T04:32:28;99959.09;;;21.49
76007;BMP280;64699;0.000;0.000;2023-08-08T04:34:53;99944.53;;;21.49
76007;BMP280;64699;0.000;0.000;2023-08-08T04:37:18;99949.91;;;21.47
76007;BMP280;64699;0.000;0.000;2023-08-08T04:39:43;99952.84;;;21.49
76007;BMP280;64699;0.000;0.000;2023-08-08T04:42:08;99952.66;;;21.47
76007;BMP280;64699;0.000;0.000;2023-08-08T04:44:34;99954.09;;;21.48
76007;BMP280;64699;0.000;0.000;2023-08-08T04:46:59;99956.88;;;21.48
76007;BMP280;64699;0.000;0.000;2023-08-08T04:49:24;99960.94;;;21.47
76007;BMP280;64699;0.000;0.000;2023-08-08T04:51:49;99956.19;;;21.47
76007;BMP280;64699;0.000;0.000;2023-08-08T04:54:14;99962.41;;;21.48
76007;BMP280;64699;0.000;0.000;2023-08-08T04:56:40;99972.00;;;21.47
76007;BMP280;64699;0.000;0.000;2023-08-08T04:59:05;99965.75;;;21.46
76007;BMP280;64699;0.000;0.000;2023-08-08T05:01:30;99964.28;;;21.45
76007;BMP280;64699;0.000;0.000;2023-08-08T05:03:55;99966.47;;;21.47
76007;BMP280;64699;0.000;0.000;2023-08-08T05:06:20;99969.25;;;21.47
76007;BMP280;64699;0.000;0.000;2023-08-08T05:08:46;99976.06;;;21.46
76007;BMP280;64699;0.000;0.000;2023-08-08T05:11:11;99976.06;;;21.46
76007;BMP280;64699;0.000;0.000;2023-08-08T05:13:36;99985.09;;;21.46
76007;BMP280;64699;0.000;0.000;2023-08-08T05:16:01;99986.56;;;21.47
76007;BMP280;64699;0.000;0.000;2023-08-08T05:18:27;99987.13;;;21.46
76007;BMP280;64699;0.000;0.000;2023-08-08T05:20:52;99989.88;;;21.46
76007;BMP280;64699;0.000;0.000;2023-08-08T05:23:17;99987.88;;;21.46
76007;BMP280;64699;0.000;0.000;2023-08-08T05:25:42;99991.19;;;21.45
76007;BMP280;64699;0.000;0.000;2023-08-08T05:28:07;99994.13;;;21.47
76007;BMP280;64699;0.000;0.000;2023-08-08T05:30:33;99987.13;;;21.46
76007;BMP280;64699;0.000;0.000;2023-08-08T05:32:58;99989.88;;;21.46
76007;BMP280;64699;0.000;0.000;2023-08-08T05:35:23;99999.66;;;21.47
76007;BMP280;64699;0.000;0.000;2023-08-08T05:37:48;99998.31;;;21.48
76007;BMP280;64699;0.000;0.000;2023-08-08T05:40:14;99994.88;;;21.47
76007;BMP280;64699;0.000;0.000;2023-08-08T05:42:39;99999.81;;;21.49
76007;BMP280;64699;0.000;0.000;2023-08-08T05:45:04;100002.59;;;21.49
76007;BMP280;64699;0.000;0.000;2023-08-08T05:47:30;99999.81;;;21.49
76007;BMP280;64699;0.000;0.000;2023-08-08T05:49:55;100003.84;;;21.48
76007;BMP280;64699;0.000;0.000;2023-08-08T05:52:20;100006.63;;;21.48
76007;BMP280;64699;0.000;0.000;2023-08-08T05:54:46;100003.84;;;21.48
76007;BMP280;64699;0.000;0.000;2023-08-08T05:57:12;100000.41;;;21.47
76007;BMP280;64699;0.000;0.000;2023-08-08T05:59:37;100010.69;;;21.47
76007;BMP280;64699;0.000;0.000;2023-08-08T06:02:02;100016.22;;;21.47
76007;BMP280;64699;0.000;0.000;2023-08-08T06:04:27;100014.22;;;21.47
76007;BMP280;64699;0.000;0.000;2023-08-08T06:06:52;100017.66;;;21.48
76007;BMP280;64699;0.000;0.000;2023-08-08T06:09:18;100020.44;;;21.48
76007;BMP280;64699;0.000;0.000;2023-08-08T06:11:43;100018.41;;;21.48
76007;BMP280;64699;0.000;0.000;2023-08-08T06:14:08;100028.72;;;21.48
76007;BMP280;64699;0.000;0.000;2023-08-08T06:16:34;100032.81;;;21.47
76007;BMP280;64699;0.000;0.000;2023-08-08T06:18:59;100033.56;;;21.47
76007;BMP280;64699;0.000;0.000;2023-08-08T06:21:24;100038.34;;;21.47
76007;BMP280;64699;0.000;0.000;2023-08-08T06:23:49;100040.38;;;21.46
76007;BMP280;64699;0.000;0.000;2023-08-08T06:26:15;100032.81;;;21.47
76007;BMP280;64699;0.000;0.000;2023-08-08T06:28:40;100038.34;;;21.47
76007;BMP280;64699;0.000;0.000;2023-08-08T06:31:05;100036.31;;;21.47
76007;BMP280;64699;0.000;0.000;2023-08-08T06:33:30;100043.88;;;21.47
76007;BMP280;64699;0.000;0.000;2023-08-08T06:35:55;100046.63;;;21.47
76007;BMP280;64699;0.000;0.000;2023-08-08T06:38:21;100046.44;;;21.45
76007;BMP280;64699;0.000;0.000;2023-08-08T06:40:46;100047.91;;;21.46
76007;BMP280;64699;0.000;0.000;2023-08-08T06:43:11;100052.72;;;21.45
76007;BMP280;64699;0.000;0.000;2023-08-08T06:45:37;100045.16;;;21.46
76007;BMP280;64699;0.000;0.000;2023-08-08T06:48:03;100044.44;;;21.45
76007;BMP280;64699;0.000;0.000;2023-08-08T06:50:28;100047.91;;;21.46
76007;BMP280;64699;0.000;0.000;2023-08-08T06:52:53;100052.16;;;21.47
76007;BMP280;64699;0.000;0.000;2023-08-08T06:55:18;100058.97;;;21.46
76007;BMP280;64699;0.000;0.000;2023-08-08T06:57:44;100055.50;;;21.45
76007;BMP280;64699;0.000;0.000;2023-08-08T07:00:09;100056.56;;;21.50
76007;BMP280;64699;0.000;0.000;2023-08-08T07:02:37;100057.88;;;21.49
76007;BMP280;64699;0.000;0.000;2023-08-08T07:05:02;100059.34;;;21.50
76007;BMP280;64699;0.000;0.000;2023-08-08T07:07:28;100053.03;;;21.57
76007;BMP280;64699;0.000;0.000;2023-08-08T07:09:55;100056.13;;;21.60
76007;BMP280;64699;0.000;0.000;2023-08-08T07:12:21;100051.91;;;21.59
76007;BMP280;64699;0.000;0.000;2023-08-08T07:14:46;100058.34;;;21.62
76007;BMP280;64699;0.000;0.000;2023-08-08T07:17:11;100049.66;;;21.65
76007;BMP280;64699;0.000;0.000;2023-08-08T07:19:37;100048.19;;;21.64
76007;BMP280;64699;0.000;0.000;2023-08-08T07:22:02;100037.69;;;21.63
76007;BMP280;64699;0.000;0.000;2023-08-08T07:24:27;100054.28;;;21.63
76007;BMP280;64699;0.000;0.000;2023-08-08T07:26:54;100043.22;;;21.63
76007;BMP280;64699;0.000;0.000;2023-08-08T07:29:25;100048.19;;;21.64
76007;BMP280;64699;0.000;0.000;2023-08-08T07:31:53;100048.19;;;21.64
76007;BMP280;64699;0.000;0.000;2023-08-08T07:34:19;100051.16;;;21.66
76007;BMP280;64699;0.000;0.000;2023-08-08T07:36:45;100051.28;;;21.68
76007;BMP280;64699;0.000;0.000;2023-08-08T07:39:10;100057.59;;;21.61
76007;BMP280;64699;0.000;0.000;2023-08-08T07:41:36;100054.59;;;21.43
76007;BMP280;64699;0.000;0.000;2023-08-08T07:44:01;100052.41;;;21.34
76007;BMP280;64699;0.000;0.000;2023-08-08T07:46:26;100053.13;;;21.34
76007;BMP280;64699;0.000;0.000;2023-08-08T07:48:51;100052.88;;;21.15
76007;BMP280;64699;0.000;0.000;2023-08-08T07:51:17;100051.41;;;21.07
76007;BMP280;64699;0.000;0.000;2023-08-08T07:53:42;100053.66;;;20.93
76007;BMP280;64699;0.000;0.000;2023-08-08T07:56:07;100047.63;;;20.73
76007;BMP280;64699;0.000;0.000;2023-08-08T07:58:33;100057.19;;;20.57
76007;BMP280;64699;0.000;0.000;2023-08-08T08:00:58;100059.25;;;20.56
76007;BMP280;64699;0.000;0.000;2023-08-08T08:03:26;100045.22;;;20.69
76007;BMP280;64699;0.000;0.000;2023-08-08T08:05:52;100054.06;;;20.75
76007;BMP280;64699;0.000;0.000;2023-08-08T08:08:17;100064.56;;;20.62
76007;BMP280;64699;0.000;0.000;2023-08-08T08:10:42;100055.38;;;20.59
76007;BMP280;64699;0.000;0.000;2023-08-08T08:13:08;100065.66;;;20.59
76007;BMP280;64699;0.000;0.000;2023-08-08T08:15:33;100060.31;;;20.53
76007;BMP280;64699;0.000;0.000;2023-08-08T08:17:59;100060.69;;;20.50
76007;BMP280;64699;0.000;0.000;2023-08-08T08:20:24;100041.03;;;20.46
76007;BMP280;64699;0.000;0.000;2023-08-08T08:22:50;100050.59;;;20.45
76007;BMP280;64699;0.000;0.000;2023-08-08T08:25:15;100059.94;;;20.57
76007;BMP280;64699;0.000;0.000;2023-08-08T08:27:40;100061.44;;;20.58
76007;BMP280;64699;0.000;0.000;2023-08-08T08:30:06;100065.13;;;20.53
76007;BMP280;64699;0.000;0.000;2023-08-08T08:32:34;100057.41;;;20.51
76007;BMP280;64699;0.000;0.000;2023-08-08T08:35:01;100047.47;;;20.56
76007;BMP280;64699;0.000;0.000;2023-08-08T08:37:27;100055.38;;;20.59
76007;BMP280;64699;0.000;0.000;2023-08-08T08:39:53;100057.03;;;20.55
76007;BMP280;64699;0.000;0.000;2023-08-08T08:42:18;100065.69;;;20.51
76007;BMP280;64699;0.000;0.000;2023-08-08T08:44:43;100060.16;;;20.44
76007;BMP280;64699;0.000;0.000;2023-08-08T08:47:09;100064.56;;;20.39
76007;BMP280;64699;0.000;0.000;2023-08-08T08:49:37;100074.88;;;20.39
76007;BMP280;64699;0.000;0.000;2023-08-08T08:52:03;100067.88;;;20.53
76007;BMP280;64699;0.000;0.000;2023-08-08T08:54:29;100071.38;;;20.61
76007;BMP280;64699;0.000;0.000;2023-08-08T08:56:55;100072.09;;;20.61
76007;BMP280;64699;0.000;0.000;2023-08-08T08:59:20;100061.81;;;20.62
76007;BMP280;64699;0.000;0.000;2023-08-08T09:01:46;100062.16;;;20.66
76007;BMP280;64699;0.000;0.000;2023-08-08T09:04:11;100065.66;;;20.66
76007;BMP280;64699;0.000;0.000;2023-08-08T09:06:37;100066.00;;;20.70
76007;BMP280;64699;0.000;0.000;2023-08-08T09:09:04;100076.34;;;20.70
76007;BMP280;64699;0.000;0.000;2023-08-08T09:11:29;100065.84;;;20.68
76007;BMP280;64699;0.000;0.000;2023-08-08T09:13:58;100063.09;;;20.68
76007;BMP280;64699;0.000;0.000;2023-08-08T09:16:24;100072.09;;;20.61
76007;BMP280;64699;0.000;0.000;2023-08-08T09:18:50;100070.31;;;20.56
76007;BMP280;64699;0.000;0.000;2023-08-08T09:21:15;100072.69;;;20.52
76007;BMP280;64699;0.000;0.000;2023-08-08T09:23:41;100078.19;;;20.52
76007;BMP280;64699;0.000;0.000;2023-08-08T09:26:06;100089.25;;;20.52
76007;BMP280;64699;0.000;0.000;2023-08-08T09:28:31;100089.56;;;20.49
76007;BMP280;64699;0.000;0.000;2023-08-08T09:30:57;100085.34;;;20.55
76007;BMP280;64699;0.000;0.000;2023-08-08T09:33:22;100082.78;;;20.57
76007;BMP280;64699;0.000;0.000;2023-08-08T09:35:47;100080.38;;;20.61
76007;BMP280;64699;0.000;0.000;2023-08-08T09:38:12;100080.22;;;20.59
76007;BMP280;64699;0.000;0.000;2023-08-08T09:40:38;100088.50;;;20.59
76007;BMP280;64699;0.000;0.000;2023-08-08T09:43:03;100083.69;;;20.67
76007;BMP280;64699;0.000;0.000;2023-08-08T09:45:40;100078.34;;;20.84
76007;BMP280;64699;0.000;0.000;2023-08-08T09:48:09;100092.88;;;20.77
76007;BMP280;64699;0.000;0.000;2023-08-08T09:50:35;100087.94;;;20.68
76007;BMP280;64699;0.000;0.000;2023-08-08T09:53:01;100089.75;;;20.66
76007;BMP280;64699;0.000;0.000;2023-08-08T09:55:26;100084.25;;;20.66
76007;BMP280;64699;0.000;0.000;2023-08-08T09:57:52;100089.41;;;20.62
76007;BMP280;64699;0.000;0.000;2023-08-08T10:00:17;100088.50;;;20.59
76007;BMP280;64699;0.000;0.000;2023-08-08T10:02:43;100092.16;;;20.62
76007;BMP280;64699;0.000;0.000;2023-08-08T10:05:09;100091.97;;;20.67
76007;BMP280;64699;0.000;0.000;2023-08-08T10:07:34;100094.91;;;20.69
76007;BMP280;64699;0.000;0.000;2023-08-08T10:10:00;100086.84;;;20.56
76007;BMP280;64699;0.000;0.000;2023-08-08T10:12:25;100093.09;;;20.49
76007;BMP280;64699;0.000;0.000;2023-08-08T10:14:50;100082.22;;;20.44
76007;BMP280;64699;0.000;0.000;2023-08-08T10:17:16;100089.78;;;20.43
76007;BMP280;64699;0.000;0.000;2023-08-08T10:19:54;100101.19;;;20.47
76007;BMP280;64699;0.000;0.000;2023-08-08T10:22:21;100090.34;;;20.49
76007;BMP280;64699;0.000;0.000;2023-08-08T10:24:47;100091.66;;;20.48
76007;BMP280;64699;0.000;0.000;2023-08-08T10:27:16;100082.78;;;20.50
76007;BMP280;64699;0.000;0.000;2023-08-08T10:29:51;100094.56;;;20.50
76007;BMP280;64699;0.000;0.000;2023-08-08T10:32:21;100093.09;;;20.49
76007;BMP280;64699;0.000;0.000;2023-08-08T10:34:48;100094.75;;;20.52
76007;BMP280;64699;0.000;0.000;2023-08-08T10:37:14;100101.94;;;20.48
76007;BMP280;64699;0.000;0.000;2023-08-08T10:42:22;100096.41;;;20.48
76007;BMP280;64699;0.000;0.000;2023-08-08T10:44:51;100109.47;;;20.47
76007;BMP280;64699;0.000;0.000;2023-08-08T10:47:20;100112.03;;;20.45
76007;BMP280;64699;0.000;0.000;2023-08-08T10:49:55;100106.88;;;20.49
76007;BMP280;64699;0.000;0.000;2023-08-08T10:52:20;100109.47;;;20.47
76007;BMP280;64699;0.000;0.000;2023-08-08T10:54:51;100114.44;;;20.41
76007;BMP280;64699;0.000;0.000;2023-08-08T10:57:17;100112.59;;;20.44
76007;BMP280;64699;0.000;0.000;2023-08-08T10:59:44;100115.91;;;20.42
76007;BMP280;64699;0.000;0.000;2023-08-08T11:02:09;100113.72;;;20.48
76007;BMP280;64699;0.000;0.000;2023-08-08T11:04:34;100106.88;;;20.49
76007;BMP280;64699;0.000;0.000;2023-08-08T11:07:00;100115.88;;;20.50
76007;BMP280;64699;0.000;0.000;2023-08-08T11:09:26;100110.38;;;20.57
76007;BMP280;64699;0.000;0.000;2023-08-08T11:11:52;100111.31;;;20.60
76007;BMP280;64699;0.000;0.000;2023-08-08T11:14:20;100119.75;;;20.54
76007;BMP280;64699;0.000;0.000;2023-08-08T11:16:47;100108.38;;;20.50
76007;BMP280;64699;0.000;0.000;2023-08-08T11:19:12;100100.28;;;20.60
76007;BMP280;64699;0.000;0.000;2023-08-08T11:21:39;100096.03;;;20.66
76007;BMP280;64699;0.000;0.000;2023-08-08T11:24:05;100111.13;;;20.65
76007;BMP280;64699;0.000;0.000;2023-08-08T11:26:31;100113.50;;;20.61
76007;BMP280;64699;0.000;0.000;2023-08-08T11:28:58;100121.63;;;20.59
76007;BMP280;64699;0.000;0.000;2023-08-08T11:31:23;100114.47;;;20.56
76007;BMP280;64699;0.000;0.000;2023-08-08T11:33:49;100108.72;;;20.54
76007;BMP280;64699;0.000;0.000;2023-08-08T11:36:15;100113.88;;;20.50
76007;BMP280;64699;0.000;0.000;2023-08-08T11:38:40;100124.75;;;20.48
76007;BMP280;64699;0.000;0.000;2023-08-08T11:41:08;100122.16;;;20.50
76007;BMP280;64699;0.000;0.000;2023-08-08T11:43:33;100128.59;;;20.53
76007;BMP280;64699;0.000;0.000;2023-08-08T11:46:02;100108.91;;;20.49
76007;BMP280;64699;0.000;0.000;2023-08-08T11:48:28;100113.34;;;20.59
76007;BMP280;64699;0.000;0.000;2023-08-08T11:50:53;100126.94;;;20.65
76007;BMP280;64699;0.000;0.000;2023-08-08T11:53:19;100117.75;;;20.70
76007;BMP280;64699;0.000;0.000;2023-08-08T11:55:44;100122.72;;;20.64
76007;BMP280;64699;0.000;0.000;2023-08-08T11:58:12;100121.44;;;20.65
76007;BMP280;64699;0.000;0.000;2023-08-08T12:00:37;100126.38;;;20.59
76007;BMP280;64699;0.000;0.000;2023-08-08T12:03:02;100131.53;;;20.62
76007;BMP280;64699;0.000;0.000;2023-08-08T12:05:29;100135.41;;;20.67
76007;BMP280;64699;0.000;0.000;2023-08-08T12:07:55;100144.78;;;20.71
76007;BMP280;64699;0.000;0.000;2023-08-08T12:10:21;100133.94;;;20.73
76007;BMP280;64699;0.000;0.000;2023-08-08T12:12:51;100131.72;;;20.72
76007;BMP280;64699;0.000;0.000;2023-08-08T12:15:17;100136.16;;;20.67
76007;BMP280;64699;0.000;0.000;2023-08-08T12:17:42;100145.19;;;20.68
76007;BMP280;64699;0.000;0.000;2023-08-08T12:20:07;100137.28;;;20.64
76007;BMP280;64699;0.000;0.000;2023-08-08T12:22:34;100144.22;;;20.58
76007;BMP280;64699;0.000;0.000;2023-08-08T12:24:59;100141.28;;;20.63
76007;BMP280;64699;0.000;0.000;2023-08-08T12:27:25;100137.44;;;20.66
76007;BMP280;64699;0.000;0.000;2023-08-08T12:29:50;100132.13;;;20.76
76007;BMP280;64699;0.000;0.000;2023-08-08T12:32:16;100126.56;;;20.83
76007;BMP280;64699;0.000;0.000;2023-08-08T12:34:42;100130.81;;;20.84
76007;BMP280;64699;0.000;0.000;2023-08-08T12:37:07;100132.63;;;20.89
76007;BMP280;64699;0.000;0.000;2023-08-08T12:39:32;100139.81;;;20.92
76007;BMP280;64699;0.000;0.000;2023-08-08T12:41:57;100135.22;;;20.87
76007;BMP280;64699;0.000;0.000;2023-08-08T12:44:23;100133.75;;;20.79
76007;BMP280;64699;0.000;0.000;2023-08-08T12:46:48;100137.25;;;20.79
76007;BMP280;64699;0.000;0.000;2023-08-08T12:49:13;100141.84;;;20.84
76007;BMP280;64699;0.000;0.000;2023-08-08T12:51:39;100136.13;;;20.89
76007;BMP280;64699;0.000;0.000;2023-08-08T12:54:04;100130.22;;;20.93
76007;BMP280;64699;0.000;0.000;2023-08-08T12:56:29;100131.69;;;20.94
76007;BMP280;64699;0.000;0.000;2023-08-08T12:58:54;100135.22;;;20.87
76007;BMP280;64699;0.000;0.000;2023-08-08T13:01:19;100141.66;;;20.82
76007;BMP280;64699;0.000;0.000;2023-08-08T13:03:45;100144.03;;;20.78
76007;BMP280;64699;0.000;0.000;2023-08-08T13:06:10;100132.28;;;20.78
76007;BMP280;64699;0.000;0.000;2023-08-08T13:08:36;100131.91;;;20.81
76007;BMP280;64699;0.000;0.000;2023-08-08T13:11:02;100129.31;;;20.83
76007;BMP280;64699;0.000;0.000;2023-08-08T13:13:27;100134.66;;;20.81
76007;BMP280;64699;0.000;0.000;2023-08-08T13:15:52;100131.75;;;20.79
76007;BMP280;64699;0.000;0.000;2023-08-08T13:18:17;100139.28;;;20.79
76007;BMP280;64699;0.000;0.000;2023-08-08T13:20:43;100145.31;;;20.77
76007;BMP280;64699;0.000;0.000;2023-08-08T13:23:08;100141.28;;;20.78
76007;BMP280;64699;0.000;0.000;2023-08-08T13:25:33;100142.94;;;20.81
76007;BMP280;64699;0.000;0.000;2023-08-08T13:27:59;100143.88;;;20.83
76007;BMP280;64699;0.000;0.000;2023-08-08T13:30:26;100143.13;;;20.83
76007;BMP280;64699;0.000;0.000;2023-08-08T13:32:51;100137.63;;;20.83
76007;BMP280;64699;0.000;0.000;2023-08-08T13:35:16;100138.91;;;20.82
76007;BMP280;64699;0.000;0.000;2023-08-08T13:37:41;100139.84;;;20.84
76007;BMP280;64699;0.000;0.000;2023-08-08T13:40:06;100146.81;;;20.85
76007;BMP280;64699;0.000;0.000;2023-08-08T13:42:32;100146.28;;;20.87
76007;BMP280;64699;0.000;0.000;2023-08-08T13:44:57;100153.06;;;20.86
76007;BMP280;64699;0.000;0.000;2023-08-08T13:47:22;100149.41;;;20.83
76007;BMP280;64699;0.000;0.000;2023-08-08T13:49:47;100148.47;;;20.81
76007;BMP280;64699;0.000;0.000;2023-08-08T13:52:13;100151.22;;;20.81
76007;BMP280;64699;0.000;0.000;2023-08-08T13:54:38;100143.31;;;20.78
76007;BMP280;64699;0.000;0.000;2023-08-08T13:57:03;100147.03;;;20.80
76007;BMP280;64699;0.000;0.000;2023-08-08T13:59:29;100141.28;;;20.78
76007;BMP280;64699;0.000;0.000;2023-08-08T14:01:54;100150.16;;;20.77
76007;BMP280;64699;0.000;0.000;2023-08-08T14:04:20;100149.41;;;20.76
76007;BMP280;64699;0.000;0.000;2023-08-08T14:06:45;100157.50;;;20.74